Hale, Missouri
Current Conditions -  °F | °C
As of 6:55 AM on Tuesday 21 Oct 2014 (Local Time) from KIRK Reporting Station
Clear Clear  
Wind Chill: 40°   Ceiling: Unl
Heat Index: 40°   Visibility: 10mi
Dew Point: 39°   Wind: 3mph
Humidity: 97%   Direction: 350°N
Pressure: 30.12"   Gusts: NA
Location:  39.6°N, 93.34°W
Report Text: KIRK 211155Z AUTO 35003KT 10SM CLR 04/04 A3012 RMK AO2 SLP204 T00440039 10072 20039 53013
Loading
Personal Weather Stations






























Interactive Weather Map
Tropical Storm Tracking
New forecast layout! Learn more

10-Day Weather Forecast

Advertisements
Track Severe Weather on mobile